Time;durP1;ratioP1;P1;durP2;ratioP2;P2;SDS_P1;SDS_P2;PMS_P1;PMS_P2;Temp;Humidity;BMP_temperature;BMP_pressure;BME280_temperature;BME280_humidity;BME280_pressure;Samples;Min_cycle;Max_cycle;Signal;HPM_P1;HPM_P2
2021/12/20 00:01:01;;;;;;;1999.90;999.90;;;4.00;92.80;;;;;;4972613;28;20126;-83
2021/12/20 00:03:26;;;;;;;1999.90;999.90;;;4.10;92.60;;;;;;4956631;28;20058;-85
2021/12/20 00:05:52;;;;;;;1999.90;999.90;;;4.20;92.20;;;;;;4972538;28;20055;-86
2021/12/20 00:08:18;;;;;;;1999.90;999.90;;;4.30;91.60;;;;;;4973279;28;20526;-84
2021/12/20 00:10:44;;;;;;;1999.90;999.90;;;4.40;91.30;;;;;;4960407;28;20038;-83
2021/12/20 00:13:10;;;;;;;1999.90;999.90;;;4.50;90.70;;;;;;4959687;28;20038;-85
2021/12/20 00:15:35;;;;;;;1999.90;999.90;;;4.50;90.70;;;;;;4960149;28;20047;-84
2021/12/20 00:18:01;;;;;;;1999.90;999.90;;;4.60;90.80;;;;;;4975864;28;20038;-85
2021/12/20 00:20:27;;;;;;;1999.90;999.90;;;4.60;90.40;;;;;;4975764;28;20063;-83
2021/12/20 00:22:52;;;;;;;1999.90;999.90;;;4.60;90.40;;;;;;4974988;28;20023;-83
2021/12/20 00:25:18;;;;;;;1999.90;999.90;;;4.60;90.10;;;;;;4975098;28;20035;-84
2021/12/20 00:27:44;;;;;;;1999.90;999.90;;;4.60;90.40;;;;;;4974937;28;20069;-83
2021/12/20 00:30:11;;;;;;;1999.90;999.90;;;4.50;90.30;;;;;;4975282;28;20406;-83
2021/12/20 00:32:37;;;;;;;1999.90;999.90;;;4.50;90.30;;;;;;4959235;28;20042;-83
2021/12/20 00:35:04;;;;;;;1999.90;999.90;;;4.50;90.50;;;;;;4958978;28;20027;-84
2021/12/20 00:40:23;;;;;;;1999.90;999.90;;;4.60;89.70;;;;;;4960643;28;20030;-85
2021/12/20 00:42:58;;;;;;;1999.90;999.90;;;4.60;90.00;;;;;;4975400;28;20027;-84
2021/12/20 00:45:26;;;;;;;1999.90;999.90;;;4.60;90.00;;;;;;4958872;28;20059;-84
2021/12/20 00:47:52;;;;;;;1999.90;999.90;;;4.50;90.30;;;;;;4958935;28;20031;-84
2021/12/20 00:50:19;;;;;;;1999.90;999.90;;;4.40;91.40;;;;;;4959984;28;20019;-85
2021/12/20 00:52:47;;;;;;;1999.90;999.90;;;4.10;92.90;;;;;;4958630;28;20074;-83
2021/12/20 00:55:17;;;;;;;1999.90;999.90;;;3.90;93.40;;;;;;4958753;28;20035;-84
2021/12/20 00:57:43;;;;;;;1999.90;999.90;;;3.70;94.40;;;;;;4958601;28;20110;-86
2021/12/20 01:00:10;;;;;;;1999.90;999.90;;;3.40;95.10;;;;;;4958094;28;20023;-85
2021/12/20 01:02:36;;;;;;;1999.90;999.90;;;3.20;95.70;;;;;;4958513;28;20127;-85
2021/12/20 01:05:02;;;;;;;1999.90;999.90;;;3.10;96.20;;;;;;4959048;28;20066;-85
2021/12/20 01:07:29;;;;;;;1999.90;999.90;;;3.00;96.50;;;;;;4959578;28;20023;-84
2021/12/20 01:09:58;;;;;;;1999.90;999.90;;;3.10;96.00;;;;;;4974818;28;20078;-85
2021/12/20 01:12:28;;;;;;;1999.90;999.90;;;3.40;94.40;;;;;;4960104;28;20391;-85
2021/12/20 01:14:58;;;;;;;1999.90;999.90;;;3.50;94.20;;;;;;4958393;28;20043;-83
2021/12/20 01:17:24;;;;;;;1999.90;999.90;;;3.60;93.80;;;;;;4958327;28;20090;-85
2021/12/20 01:19:50;;;;;;;1999.90;999.90;;;3.70;93.90;;;;;;4957860;28;20028;-85
2021/12/20 01:22:16;;;;;;;1999.90;999.90;;;3.70;94.00;;;;;;4974073;28;20126;-85
2021/12/20 01:24:42;;;;;;;1999.90;999.90;;;3.70;94.90;;;;;;4957621;28;20052;-85
2021/12/20 01:27:08;;;;;;;1999.90;999.90;;;3.50;95.00;;;;;;4974008;28;20038;-83
2021/12/20 01:29:34;;;;;;;1999.90;999.90;;;3.30;96.50;;;;;;4974611;28;20032;-86
2021/12/20 01:31:59;;;;;;;1999.90;999.90;;;3.20;97.60;;;;;;4974278;28;20019;-84
2021/12/20 01:34:25;;;;;;;1999.90;999.90;;;3.00;98.50;;;;;;4974518;28;20059;-84
2021/12/20 01:36:51;;;;;;;1999.90;999.90;;;2.50;99.90;;;;;;4974638;28;20063;-86
2021/12/20 01:39:17;;;;;;;1999.90;999.90;;;2.30;99.90;;;;;;4974890;28;20448;-86
2021/12/20 01:41:46;;;;;;;1999.90;999.90;;;2.30;99.90;;;;;;4974510;28;20028;-83
2021/12/20 01:44:13;;;;;;;1999.90;999.90;;;2.20;99.90;;;;;;4974723;28;20483;-85
2021/12/20 01:46:39;;;;;;;1999.90;999.90;;;2.10;99.90;;;;;;4974791;28;20375;-83
2021/12/20 01:49:09;;;;;;;1999.90;999.90;;;2.00;99.90;;;;;;4958213;28;20061;-84
2021/12/20 01:54:04;;;;;;;1999.90;999.90;;;2.00;99.90;;;;;;4959691;28;20110;-83
2021/12/20 01:56:32;;;;;;;1999.90;999.90;;;1.80;99.90;;;;;;4958332;28;20098;-85
2021/12/20 01:59:05;;;;;;;1999.90;999.90;;;1.90;99.90;;;;;;4974763;28;20031;-83
2021/12/20 02:01:31;;;;;;;1999.90;999.90;;;1.80;99.90;;;;;;4958468;28;20027;-84
2021/12/20 02:04:00;;;;;;;1999.90;999.90;;;1.80;99.90;;;;;;4959502;28;20501;-88
2021/12/20 02:06:34;;;;;;;1999.90;999.90;;;1.70;99.90;;;;;;4958181;28;20035;-84
2021/12/20 02:09:05;;;;;;;1999.90;999.90;;;1.60;99.90;;;;;;4957983;28;20023;-85
2021/12/20 02:11:31;;;;;;;1999.90;999.90;;;1.70;99.90;;;;;;4958203;28;20031;-86
2021/12/20 02:13:56;;;;;;;1999.90;999.90;;;1.70;99.90;;;;;;4959325;28;20479;-84
2021/12/20 02:16:23;;;;;;;1999.90;999.90;;;1.70;99.90;;;;;;4974385;28;20042;-84
2021/12/20 02:18:49;;;;;;;1999.90;999.90;;;1.70;99.90;;;;;;4958523;28;20364;-84
2021/12/20 02:21:15;;;;;;;1999.90;999.90;;;1.70;99.90;;;;;;4958251;28;20486;-83
2021/12/20 02:23:41;;;;;;;1999.90;999.90;;;1.70;99.90;;;;;;4973827;28;20055;-84
2021/12/20 02:26:07;;;;;;;1999.90;999.90;;;1.70;99.90;;;;;;4973677;28;20035;-84
2021/12/20 02:28:40;;;;;;;1999.90;999.90;;;1.70;99.90;;;;;;4974561;28;20027;-84
2021/12/20 02:39:11;;;;;;;1999.90;999.90;;;2.00;99.90;;;;;;4959308;28;20034;-83
2021/12/20 02:41:37;;;;;;;1999.90;999.90;;;2.10;99.90;;;;;;4974040;28;20031;-85
2021/12/20 02:44:05;;;;;;;1999.90;999.90;;;2.10;99.90;;;;;;4974199;28;20023;-85
2021/12/20 02:49:15;;;;;;;1999.90;999.90;;;2.30;99.90;;;;;;4958786;28;20113;-84
2021/12/20 02:51:42;;;;;;;1999.90;999.90;;;2.40;99.90;;;;;;4956937;28;20043;-88
2021/12/20 02:54:09;;;;;;;1999.90;999.90;;;2.50;99.90;;;;;;4958072;28;20110;-84
2021/12/20 02:56:36;;;;;;;1999.90;999.90;;;2.60;99.90;;;;;;4957167;28;20035;-84
2021/12/20 02:59:02;;;;;;;1999.90;999.90;;;2.80;99.90;;;;;;4957166;28;20023;-84
2021/12/20 03:01:28;;;;;;;1999.90;999.90;;;2.80;99.90;;;;;;4957559;28;20035;-84
2021/12/20 03:03:56;;;;;;;1999.90;999.90;;;2.80;99.90;;;;;;4973134;28;20034;-82
2021/12/20 03:06:27;;;;;;;1999.90;999.90;;;2.90;99.10;;;;;;4956820;28;20449;-83
2021/12/20 03:08:55;;;;;;;1999.90;999.90;;;2.90;98.90;;;;;;4956575;28;20050;-85
2021/12/20 03:11:24;;;;;;;1999.90;999.90;;;3.10;98.10;;;;;;4957232;28;20031;-84
2021/12/20 03:13:53;;;;;;;1999.90;999.90;;;3.20;97.30;;;;;;4956919;28;20452;-84
2021/12/20 03:16:20;;;;;;;1999.90;999.90;;;3.20;97.50;;;;;;4956633;28;20039;-84
2021/12/20 03:18:46;;;;;;;1999.90;999.90;;;3.10;97.80;;;;;;4958190;28;20133;-84
2021/12/20 03:21:11;;;;;;;1999.90;999.90;;;3.10;96.90;;;;;;4973126;28;20055;-85
2021/12/20 03:23:38;;;;;;;1999.90;999.90;;;3.00;97.20;;;;;;4972922;28;20559;-85
2021/12/20 03:26:04;;;;;;;1999.90;999.90;;;2.90;97.90;;;;;;4957585;28;20042;-85
2021/12/20 03:28:29;;;;;;;1999.90;999.90;;;2.70;98.80;;;;;;4957039;28;20118;-84
2021/12/20 03:30:55;;;;;;;1999.90;999.90;;;2.50;99.60;;;;;;4973236;28;20129;-84
2021/12/20 03:33:21;;;;;;;1999.90;999.90;;;2.20;99.90;;;;;;4972929;28;20050;-82
2021/12/20 03:35:47;;;;;;;1999.90;999.90;;;1.80;99.90;;;;;;4957153;28;20031;-83
2021/12/20 03:38:13;;;;;;;1999.90;999.90;;;1.70;99.90;;;;;;4973477;28;20056;-83
2021/12/20 03:40:38;;;;;;;1999.90;999.90;;;1.60;99.90;;;;;;4973048;28;20031;-85
2021/12/20 03:43:06;;;;;;;1999.90;999.90;;;1.30;99.90;;;;;;4972484;28;20114;-85
2021/12/20 03:45:33;;;;;;;1999.90;999.90;;;1.20;99.90;;;;;;4957313;28;20043;-84
2021/12/20 03:47:59;;;;;;;1999.90;999.90;;;1.20;99.90;;;;;;4957336;28;20066;-83
2021/12/20 03:50:27;;;;;;;1999.90;999.90;;;1.20;99.90;;;;;;4957070;28;20058;-85
2021/12/20 03:52:53;;;;;;;1999.90;999.90;;;1.20;99.90;;;;;;4956476;28;20513;-84
2021/12/20 03:55:19;;;;;;;1999.90;999.90;;;1.20;99.90;;;;;;4956714;28;20031;-83
2021/12/20 03:57:44;;;;;;;1999.90;999.90;;;1.40;99.90;;;;;;4972967;28;20035;-84
2021/12/20 04:00:13;;;;;;;1999.90;999.90;;;1.50;99.90;;;;;;4972991;28;20027;-83
2021/12/20 04:02:43;;;;;;;1999.90;999.90;;;1.40;99.90;;;;;;4957056;28;20032;-83
2021/12/20 04:05:10;;;;;;;1999.90;999.90;;;1.50;99.90;;;;;;4958078;28;20031;-86
2021/12/20 04:07:36;;;;;;;1999.90;999.90;;;1.50;99.90;;;;;;4956889;28;20027;-84
2021/12/20 04:10:04;;;;;;;1999.90;999.90;;;1.60;99.90;;;;;;4957354;28;20038;-85
2021/12/20 04:12:29;;;;;;;1999.90;999.90;;;1.50;99.90;;;;;;4956686;28;20038;-83
2021/12/20 04:14:56;;;;;;;1999.90;999.90;;;1.60;99.90;;;;;;4973496;28;20130;-84
2021/12/20 04:17:21;;;;;;;1999.90;999.90;;;1.50;99.90;;;;;;4957281;28;20035;-84
2021/12/20 04:19:47;;;;;;;1999.90;999.90;;;1.40;99.90;;;;;;4973213;28;20038;-84
2021/12/20 04:22:14;;;;;;;1999.90;999.90;;;1.30;99.90;;;;;;4972704;28;20034;-83
2021/12/20 04:24:40;;;;;;;1999.90;999.90;;;1.20;99.90;;;;;;4972658;28;20075;-85
2021/12/20 04:27:06;;;;;;;1999.90;999.90;;;1.00;99.90;;;;;;4956875;28;20023;-84
2021/12/20 04:29:32;;;;;;;1999.90;999.90;;;1.00;99.90;;;;;;4973149;28;20031;-84
2021/12/20 04:31:58;;;;;;;1999.90;999.90;;;0.70;99.90;;;;;;4957872;28;20469;-85
2021/12/20 04:34:24;;;;;;;1999.90;999.90;;;0.60;99.90;;;;;;4972739;28;20231;-83
2021/12/20 04:36:51;;;;;;;1999.90;999.90;;;0.50;99.90;;;;;;4956005;28;20144;-83
2021/12/20 04:39:20;;;;;;;1999.90;999.90;;;0.30;99.90;;;;;;4957452;28;20026;-83
2021/12/20 04:41:46;;;;;;;1999.90;999.90;;;0.30;99.90;;;;;;4957533;28;20209;-84
2021/12/20 04:44:12;;;;;;;1999.90;999.90;;;0.30;99.90;;;;;;4972174;28;20500;-83
2021/12/20 04:46:37;;;;;;;1999.90;999.90;;;0.30;99.90;;;;;;4956516;28;20023;-83
2021/12/20 04:49:04;;;;;;;1999.90;999.90;;;0.20;99.90;;;;;;4956286;29;20048;-85
2021/12/20 04:51:29;;;;;;;1999.90;999.90;;;0.20;99.90;;;;;;4956294;28;20041;-82
2021/12/20 04:53:55;;;;;;;1999.90;999.90;;;0.20;99.90;;;;;;4972320;28;20027;-85
2021/12/20 04:56:21;;;;;;;1999.90;999.90;;;0.30;99.90;;;;;;4959702;28;20118;-86
2021/12/20 04:58:46;;;;;;;1999.90;999.90;;;0.40;99.90;;;;;;4975852;28;20534;-84
2021/12/20 05:01:12;;;;;;;1999.90;999.90;;;0.40;99.90;;;;;;4975907;28;20031;-84
2021/12/20 05:03:38;;;;;;;1999.90;999.90;;;0.40;99.90;;;;;;4975874;28;20031;-83
2021/12/20 05:06:03;;;;;;;1999.90;999.90;;;0.40;99.90;;;;;;4975506;28;20106;-84
2021/12/20 05:08:35;;;;;;;1999.90;999.90;;;0.50;99.90;;;;;;4977303;28;20024;-82
2021/12/20 05:11:03;;;;;;;1999.90;999.90;;;1.30;99.90;;;;;;4975519;28;20028;-82
2021/12/20 05:13:29;;;;;;;1999.90;999.90;;;1.20;99.90;;;;;;4957738;28;20035;-83
2021/12/20 05:15:55;;;;;;;1999.90;999.90;;;1.30;99.90;;;;;;4973299;28;20071;-81
2021/12/20 05:18:21;;;;;;;1999.90;999.90;;;1.20;99.90;;;;;;4973625;28;20039;-82
2021/12/20 05:20:46;;;;;;;1999.90;999.90;;;1.30;99.90;;;;;;4973933;28;20035;-82
2021/12/20 05:23:12;;;;;;;1999.90;999.90;;;1.30;99.90;;;;;;4973154;28;20188;-81
2021/12/20 05:25:38;;;;;;;1999.90;999.90;;;1.20;99.90;;;;;;4973593;28;20074;-83
2021/12/20 05:28:05;;;;;;;1999.90;999.90;;;1.10;99.90;;;;;;4973757;28;20024;-83
2021/12/20 05:30:31;;;;;;;1999.90;999.90;;;1.10;99.90;;;;;;4957548;28;20039;-82
2021/12/20 05:32:57;;;;;;;1999.90;999.90;;;0.90;99.90;;;;;;4958085;28;20043;-83
2021/12/20 05:35:23;;;;;;;1999.90;999.90;;;0.90;99.90;;;;;;4973355;28;20040;-83
2021/12/20 05:37:50;;;;;;;1999.90;999.90;;;0.90;99.90;;;;;;4958279;28;20118;-83
2021/12/20 05:40:16;;;;;;;1999.90;999.90;;;0.70;99.90;;;;;;4975310;28;20475;-86
2021/12/20 05:42:45;;;;;;;1999.90;999.90;;;0.70;99.90;;;;;;4959038;28;20023;-86
2021/12/20 05:45:10;;;;;;;1999.90;999.90;;;0.50;99.90;;;;;;4959247;28;20035;-86
2021/12/20 05:47:36;;;;;;;1999.90;999.90;;;0.50;99.90;;;;;;4961568;28;20038;-84
2021/12/20 05:50:04;;;;;;;1999.90;999.90;;;0.50;99.90;;;;;;4959170;28;20023;-84
2021/12/20 05:52:29;;;;;;;1999.90;999.90;;;0.40;99.90;;;;;;4958914;28;20050;-84
2021/12/20 05:54:55;;;;;;;1999.90;999.90;;;0.30;99.90;;;;;;4974567;28;20038;-85
2021/12/20 05:57:21;;;;;;;1999.90;999.90;;;0.30;99.90;;;;;;4957984;28;20027;-84
2021/12/20 05:59:46;;;;;;;1999.90;999.90;;;0.40;99.90;;;;;;4974218;28;20041;-83
2021/12/20 06:02:12;;;;;;;1999.90;999.90;;;0.20;99.90;;;;;;4974356;28;20028;-84
2021/12/20 06:04:38;;;;;;;1999.90;999.90;;;0.20;99.90;;;;;;4959278;28;20086;-83
2021/12/20 06:07:05;;;;;;;1999.90;999.90;;;0.20;99.90;;;;;;4958298;28;20481;-84
2021/12/20 06:09:32;;;;;;;1999.90;999.90;;;0.10;99.90;;;;;;4957511;28;20039;-85
2021/12/20 06:11:59;;;;;;;1999.90;999.90;;;0.00;99.90;;;;;;4975644;28;20480;-86
2021/12/20 06:14:26;;;;;;;1999.90;999.90;;;0.00;99.90;;;;;;4975769;28;21069;-85
2021/12/20 06:16:55;;;;;;;1999.90;999.90;;;0.00;99.90;;;;;;4958924;28;20050;-85
2021/12/20 06:19:22;;;;;;;1999.90;999.90;;;-0.10;99.90;;;;;;4974418;28;20148;-85
2021/12/20 06:21:48;;;;;;;1999.90;999.90;;;-0.20;99.90;;;;;;4958236;28;20063;-84
2021/12/20 06:24:13;;;;;;;1999.90;999.90;;;-0.20;99.90;;;;;;4958913;28;20062;-83
2021/12/20 06:26:39;;;;;;;1999.90;999.90;;;-0.30;99.90;;;;;;4974276;28;20034;-84
2021/12/20 06:29:05;;;;;;;1999.90;999.90;;;-0.30;99.90;;;;;;4975292;28;20114;-85
2021/12/20 06:31:30;;;;;;;1999.90;999.90;;;-0.30;99.90;;;;;;4959485;28;20059;-84
2021/12/20 06:33:56;;;;;;;1999.90;999.90;;;-0.30;99.90;;;;;;4974104;28;20066;-85
2021/12/20 06:36:22;;;;;;;1999.90;999.90;;;-0.30;99.90;;;;;;4974745;28;20042;-84
2021/12/20 06:38:48;;;;;;;1999.90;999.90;;;-0.20;99.90;;;;;;4974008;28;20182;-84
2021/12/20 06:41:14;;;;;;;1999.90;999.90;;;-0.20;99.90;;;;;;4974010;28;20027;-83
2021/12/20 06:43:40;;;;;;;1999.90;999.90;;;-0.20;99.90;;;;;;4959202;28;20388;-86
2021/12/20 06:46:07;;;;;;;1999.90;999.90;;;-0.10;99.90;;;;;;4959588;28;20027;-85
2021/12/20 06:48:33;;;;;;;1999.90;999.90;;;0.00;99.90;;;;;;4959956;28;20061;-84
2021/12/20 06:50:59;;;;;;;1999.90;999.90;;;0.40;99.90;;;;;;4959752;28;20035;-85
2021/12/20 06:53:25;;;;;;;1999.90;999.90;;;-0.10;99.90;;;;;;4975633;28;20094;-86
2021/12/20 06:55:50;;;;;;;1999.90;999.90;;;-0.10;99.90;;;;;;4975900;28;20073;-84
2021/12/20 06:58:16;;;;;;;1999.90;999.90;;;0.00;99.90;;;;;;4975329;28;20118;-84
2021/12/20 07:00:42;;;;;;;1999.90;999.90;;;0.00;99.90;;;;;;4975409;28;20031;-86
2021/12/20 07:03:07;;;;;;;1999.90;999.90;;;0.00;99.90;;;;;;4960590;28;20024;-85
2021/12/20 07:05:33;;;;;;;1999.90;999.90;;;0.00;99.90;;;;;;4974089;28;20031;-84
2021/12/20 07:07:59;;;;;;;1999.90;999.90;;;0.10;99.90;;;;;;4973802;28;20110;-84
2021/12/20 07:10:24;;;;;;;1999.90;999.90;;;0.10;99.90;;;;;;4973904;28;20027;-84
2021/12/20 07:12:51;;;;;;;1999.90;999.90;;;0.10;99.90;;;;;;4974590;28;20042;-84
2021/12/20 07:15:18;;;;;;;1999.90;999.90;;;0.00;99.90;;;;;;4974611;28;20043;-84
2021/12/20 07:17:44;;;;;;;1999.90;999.90;;;0.00;99.90;;;;;;4959161;28;20045;-84
2021/12/20 07:20:11;;;;;;;1999.90;999.90;;;-0.10;99.90;;;;;;4958736;28;20023;-84
2021/12/20 07:22:37;;;;;;;1999.90;999.90;;;0.00;99.90;;;;;;4972447;28;20113;-84
2021/12/20 07:25:03;;;;;;;1999.90;999.90;;;0.30;99.90;;;;;;4957331;28;20043;-86
2021/12/20 07:27:30;;;;;;;1999.90;999.90;;;0.30;99.90;;;;;;4956113;28;20463;-84
2021/12/20 07:29:57;;;;;;;1999.90;999.90;;;0.40;99.90;;;;;;4982134;28;20027;-85
2021/12/20 07:32:23;;;;;;;1999.90;999.90;;;0.30;99.90;;;;;;4974973;28;20049;-85
2021/12/20 07:34:48;;;;;;;1999.90;999.90;;;0.30;99.90;;;;;;4975438;28;20031;-83
2021/12/20 07:37:14;;;;;;;1999.90;999.90;;;0.30;99.90;;;;;;4975116;28;20070;-83
2021/12/20 07:39:40;;;;;;;1999.90;999.90;;;0.30;99.90;;;;;;4975541;28;20030;-85
2021/12/20 07:42:07;;;;;;;1999.90;999.90;;;0.30;99.90;;;;;;4975141;28;20109;-84
2021/12/20 07:44:33;;;;;;;1999.90;999.90;;;0.40;99.90;;;;;;4975271;28;20026;-84
2021/12/20 07:46:58;;;;;;;1999.90;999.90;;;0.40;99.90;;;;;;4976116;28;20086;-84
2021/12/20 07:49:24;;;;;;;1999.90;999.90;;;0.50;99.90;;;;;;4976121;28;20059;-84
2021/12/20 07:51:51;;;;;;;1999.90;999.90;;;0.50;99.90;;;;;;4975658;28;20019;-84
2021/12/20 07:54:19;;;;;;;1999.90;999.90;;;0.50;99.90;;;;;;4977073;28;20479;-85
2021/12/20 07:56:44;;;;;;;1999.90;999.90;;;0.40;99.90;;;;;;4976391;28;20082;-85
2021/12/20 07:59:10;;;;;;;1999.90;999.90;;;0.40;99.90;;;;;;4976294;28;20490;-85
2021/12/20 08:01:36;;;;;;;1999.90;999.90;;;0.40;99.90;;;;;;4976472;28;20109;-84
2021/12/20 08:04:03;;;;;;;1999.90;999.90;;;0.40;99.90;;;;;;4976053;28;20027;-86
2021/12/20 08:06:29;;;;;;;1999.90;999.90;;;0.40;99.90;;;;;;4976322;28;20085;-83
2021/12/20 08:08:55;;;;;;;1999.90;999.90;;;0.40;99.90;;;;;;4973733;28;20019;-80
2021/12/20 08:11:21;;;;;;;1999.90;999.90;;;0.50;99.90;;;;;;4974104;28;20085;-82
2021/12/20 08:13:47;;;;;;;1999.90;999.90;;;0.60;99.90;;;;;;4975842;28;20057;-85
2021/12/20 08:16:14;;;;;;;1999.90;999.90;;;0.70;99.90;;;;;;4975897;28;20035;-84
2021/12/20 08:18:42;;;;;;;1999.90;999.90;;;0.60;99.90;;;;;;4976374;28;20019;-83
2021/12/20 08:21:08;;;;;;;1999.90;999.90;;;0.80;99.90;;;;;;4976374;28;20093;-83
2021/12/20 08:23:34;;;;;;;1999.90;999.90;;;0.90;99.90;;;;;;4975128;28;20550;-82
2021/12/20 08:25:59;;;;;;;1999.90;999.90;;;0.90;99.90;;;;;;4975923;28;20031;-82
2021/12/20 08:28:27;;;;;;;1999.90;999.90;;;1.00;99.90;;;;;;4975115;28;20018;-82
2021/12/20 08:30:53;;;;;;;1999.90;999.90;;;1.10;99.90;;;;;;4977234;28;20045;-81
2021/12/20 08:33:19;;;;;;;1999.90;999.90;;;1.30;99.90;;;;;;4977121;28;20049;-80
2021/12/20 08:35:49;;;;;;;1999.90;999.90;;;1.40;99.90;;;;;;4978983;28;20034;-83
2021/12/20 08:38:19;;;;;;;1999.90;999.90;;;1.50;99.90;;;;;;4980086;28;20030;-82
2021/12/20 08:40:46;;;;;;;1999.90;999.90;;;1.60;99.90;;;;;;4977489;28;20458;-81
2021/12/20 08:43:12;;;;;;;1999.90;999.90;;;1.60;99.90;;;;;;4976438;28;20046;-80
2021/12/20 08:45:38;;;;;;;1999.90;999.90;;;1.70;99.90;;;;;;4977294;28;20081;-80
2021/12/20 08:48:04;;;;;;;1999.90;999.90;;;1.80;99.90;;;;;;4976143;28;20085;-79
2021/12/20 08:50:30;;;;;;;1999.90;999.90;;;1.80;99.90;;;;;;4992268;28;20114;-80
2021/12/20 08:52:55;;;;;;;1999.90;999.90;;;1.80;99.90;;;;;;4976179;28;20122;-80
2021/12/20 08:55:22;;;;;;;1999.90;999.90;;;1.90;99.90;;;;;;4976067;28;20026;-81
2021/12/20 08:57:49;;;;;;;1999.90;999.90;;;1.90;99.90;;;;;;4976423;28;20043;-81
2021/12/20 09:00:19;;;;;;;1999.90;999.90;;;1.90;99.90;;;;;;4977739;28;20034;-80
2021/12/20 09:02:45;;;;;;;1999.90;999.90;;;2.00;99.90;;;;;;4976435;28;20023;-82
2021/12/20 09:05:11;;;;;;;1999.90;999.90;;;2.00;99.90;;;;;;4977397;28;20471;-80
2021/12/20 09:07:40;;;;;;;1999.90;999.90;;;2.00;99.90;;;;;;4977052;28;20019;-82
2021/12/20 09:10:05;;;;;;;1999.90;999.90;;;2.10;99.90;;;;;;4977459;28;20015;-80
2021/12/20 09:12:31;;;;;;;1999.90;999.90;;;2.10;99.90;;;;;;4975524;28;20471;-84
2021/12/20 09:14:57;;;;;;;1999.90;999.90;;;3.50;99.90;;;;;;4979014;28;20438;-85
2021/12/20 09:17:23;;;;;;;1999.90;999.90;;;3.50;99.90;;;;;;4977747;28;20035;-85
2021/12/20 09:19:49;;;;;;;1999.90;999.90;;;3.40;99.90;;;;;;4978232;28;20027;-85
2021/12/20 09:22:15;;;;;;;1999.90;999.90;;;3.30;99.90;;;;;;4978407;28;20069;-85
2021/12/20 09:24:41;;;;;;;1999.90;999.90;;;3.20;99.90;;;;;;4978180;28;20050;-85
2021/12/20 09:27:08;;;;;;;1999.90;999.90;;;3.10;99.90;;;;;;4978124;28;20091;-86
2021/12/20 09:29:34;;;;;;;1999.90;999.90;;;3.10;99.90;;;;;;4978663;28;20475;-85
2021/12/20 09:32:00;;;;;;;1999.90;999.90;;;3.10;99.90;;;;;;4978564;28;20118;-83
2021/12/20 09:34:26;;;;;;;1999.90;999.90;;;3.10;99.90;;;;;;4978262;28;20125;-86
2021/12/20 09:36:54;;;;;;;1999.90;999.90;;;3.20;99.90;;;;;;4977946;28;20062;-84
2021/12/20 09:39:21;;;;;;;1999.90;999.90;;;3.10;99.90;;;;;;4978117;28;20117;-84
2021/12/20 09:44:13;;;;;;;1999.90;999.90;;;3.10;99.90;;;;;;4979737;28;20146;-85
2021/12/20 09:46:39;;;;;;;1999.90;999.90;;;3.60;99.90;;;;;;4977856;28;20034;-84
2021/12/20 09:49:06;;;;;;;1999.90;999.90;;;3.60;99.90;;;;;;4977003;28;20030;-86
2021/12/20 09:51:32;;;;;;;1999.90;999.90;;;3.50;99.90;;;;;;4976979;28;20475;-86
2021/12/20 09:53:58;;;;;;;1999.90;999.90;;;3.50;99.90;;;;;;4977252;28;20034;-86
2021/12/20 09:56:27;;;;;;;1999.90;999.90;;;3.50;99.90;;;;;;4977236;28;20045;-85
2021/12/20 09:58:54;;;;;;;1999.90;999.90;;;3.30;99.90;;;;;;4976996;28;20082;-85
2021/12/20 10:01:22;;;;;;;1999.90;999.90;;;3.40;99.90;;;;;;4977201;28;20069;-85
2021/12/20 10:03:48;;;;;;;1999.90;999.90;;;3.30;99.90;;;;;;4977212;28;20026;-85
2021/12/20 10:06:15;;;;;;;1999.90;999.90;;;3.50;99.90;;;;;;4976742;28;20101;-83
2021/12/20 10:08:50;;;;;;;1999.90;999.90;;;3.50;99.90;;;;;;4976524;28;20454;-85
2021/12/20 10:11:31;;;;;;;1999.90;999.90;;;3.60;99.90;;;;;;4976517;28;20041;-84
2021/12/20 10:14:12;;;;;;;1999.90;999.90;;;3.60;99.90;;;;;;4976818;28;20027;-85
2021/12/20 10:16:41;;;;;;;1999.90;999.90;;;3.80;99.90;;;;;;4977247;28;20034;-83
2021/12/20 10:19:28;;;;;;;1999.90;999.90;;;3.70;99.90;;;;;;4976558;28;20033;-83
2021/12/20 10:21:55;;;;;;;1999.90;999.90;;;3.80;99.90;;;;;;4977595;28;20054;-85
2021/12/20 10:24:36;;;;;;;1999.90;999.90;;;4.20;99.90;;;;;;4976898;28;20082;-86
2021/12/20 10:27:03;;;;;;;1999.90;999.90;;;4.20;99.90;;;;;;4976040;28;20030;-85
2021/12/20 10:29:29;;;;;;;1999.90;999.90;;;4.20;99.90;;;;;;4975230;28;20033;-85
2021/12/20 10:31:55;;;;;;;1999.90;999.90;;;4.20;99.90;;;;;;4974298;28;20545;-83
2021/12/20 10:34:35;;;;;;;1999.90;999.90;;;4.30;99.90;;;;;;4975871;28;20023;-82
2021/12/20 10:37:03;;;;;;;1999.90;999.90;;;4.40;99.90;;;;;;4976088;28;20624;-84
2021/12/20 10:39:47;;;;;;;1999.90;999.90;;;4.50;99.90;;;;;;4974951;28;20390;-81
2021/12/20 10:42:20;;;;;;;1999.90;999.90;;;4.80;99.90;;;;;;4975063;28;20026;-81
2021/12/20 10:45:13;;;;;;;1999.90;999.90;;;5.00;97.10;;;;;;4975012;28;20034;-82
2021/12/20 10:47:41;;;;;;;1999.90;999.90;;;5.20;94.70;;;;;;4974911;28;20069;-84
2021/12/20 10:50:27;;;;;;;1999.90;999.90;;;5.40;92.80;;;;;;4974712;28;20467;-82
2021/12/20 10:52:54;;;;;;;1999.90;999.90;;;5.60;89.70;;;;;;4974963;28;20031;-81
2021/12/20 10:55:37;;;;;;;1999.90;999.90;;;5.70;84.40;;;;;;4976171;28;20030;-84
2021/12/20 10:58:42;;;;;;;1999.90;999.90;;;5.90;80.70;;;;;;4978644;28;20030;-85
2021/12/20 11:01:26;;;;;;;1999.90;999.90;;;6.20;74.20;;;;;;4944202;28;20074;-84
2021/12/20 11:04:12;;;;;;;1999.90;999.90;;;6.30;72.90;;;;;;4956260;28;20056;-84
2021/12/20 11:07:00;;;;;;;1999.90;999.90;;;6.40;71.80;;;;;;4966137;28;20031;-85
2021/12/20 11:09:32;;;;;;;1999.90;999.90;;;6.40;72.40;;;;;;4976314;28;20031;-83
2021/12/20 11:12:09;;;;;;;1999.90;999.90;;;6.40;72.40;;;;;;4977805;28;20027;-85
2021/12/20 11:14:41;;;;;;;1999.90;999.90;;;6.50;71.10;;;;;;4978599;28;20050;-83
2021/12/20 11:17:09;;;;;;;1999.90;999.90;;;6.50;68.10;;;;;;4981873;28;20049;-84
2021/12/20 11:19:36;;;;;;;1999.90;999.90;;;6.50;67.60;;;;;;4976906;28;20027;-86
2021/12/20 11:22:01;;;;;;;1999.90;999.90;;;6.50;66.70;;;;;;4976997;28;20207;-86
2021/12/20 11:24:38;;;;;;;1999.90;999.90;;;6.50;66.20;;;;;;4977429;28;20212;-83
2021/12/20 11:27:07;;;;;;;1999.90;999.90;;;6.50;67.30;;;;;;4976668;28;20077;-85
2021/12/20 11:29:35;;;;;;;1999.90;999.90;;;6.50;65.20;;;;;;4977130;28;20494;-83
2021/12/20 11:32:02;;;;;;;1999.90;999.90;;;6.50;66.90;;;;;;4975799;28;20491;-83
2021/12/20 11:34:29;;;;;;;1999.90;999.90;;;6.50;67.40;;;;;;4975433;28;20023;-83
2021/12/20 11:36:56;;;;;;;1999.90;999.90;;;6.60;67.20;;;;;;4974842;28;20383;-84
2021/12/20 11:39:21;;;;;;;1999.90;999.90;;;6.50;68.00;;;;;;4974809;28;20054;-84
2021/12/20 11:41:47;;;;;;;1999.90;999.90;;;6.60;66.80;;;;;;4974623;28;20035;-83
2021/12/20 11:44:26;;;;;;;1999.90;999.90;;;6.60;65.40;;;;;;4975435;28;20090;-85
2021/12/20 11:47:07;;;;;;;1999.90;999.90;;;6.60;65.00;;;;;;4974436;28;20023;-84
2021/12/20 11:49:33;;;;;;;1999.90;999.90;;;6.60;65.80;;;;;;4974600;28;20030;-82
2021/12/20 11:52:06;;;;;;;1999.90;999.90;;;6.60;66.60;;;;;;4974513;28;20471;-83
2021/12/20 11:54:45;;;;;;;1999.90;999.90;;;6.60;65.00;;;;;;4974460;28;20030;-84
2021/12/20 11:57:36;;;;;;;1999.90;999.90;;;6.60;62.90;;;;;;4974961;28;20041;-85
2021/12/20 12:00:10;;;;;;;1999.90;999.90;;;6.50;63.60;;;;;;4969608;28;20042;-83
2021/12/20 12:02:44;;;;;;;1999.90;999.90;;;6.40;64.10;;;;;;4975536;28;20027;-83
2021/12/20 12:05:32;;;;;;;1999.90;999.90;;;6.50;64.30;;;;;;4977599;28;20359;-81
2021/12/20 12:08:30;;;;;;;1999.90;999.90;;;6.50;64.30;;;;;;4978114;28;20035;-88
2021/12/20 12:10:58;;;;;;;1999.90;999.90;;;6.50;65.20;;;;;;4979656;28;20031;-84
2021/12/20 12:13:27;;;;;;;1999.90;999.90;;;6.50;63.80;;;;;;4979807;28;20022;-82
2021/12/20 12:16:03;;;;;;;1999.90;999.90;;;6.50;63.70;;;;;;4979009;28;20121;-84
2021/12/20 12:18:49;;;;;;;1999.90;999.90;;;6.50;63.10;;;;;;4978235;28;20182;-82
2021/12/20 12:21:33;;;;;;;1999.90;999.90;;;6.50;63.20;;;;;;4978027;28;20581;-84
2021/12/20 12:24:04;;;;;;;1999.90;999.90;;;6.40;61.60;;;;;;4977713;28;20169;-81
2021/12/20 12:26:34;;;;;;;1999.90;999.90;;;6.30;61.30;;;;;;4977831;28;20397;-84
2021/12/20 12:29:00;;;;;;;1999.90;999.90;;;6.30;60.90;;;;;;4977609;28;20046;-82
2021/12/20 12:31:27;;;;;;;1999.90;999.90;;;6.30;61.90;;;;;;4977625;28;20113;-84